Time;durP1;ratioP1;P1;durP2;ratioP2;P2;SDS_P1;SDS_P2;PMS_P1;PMS_P2;Temp;Humidity;BMP_temperature;BMP_pressure;BME280_temperature;BME280_humidity;BME280_pressure;Samples;Min_cycle;Max_cycle;Signal;HPM_P1;HPM_P2
2023/05/23 00:03:30;;;;;;;8.65;6.00;;;12.50;99.90;;;;;;10204373;29;20325;-88
2023/05/23 00:08:32;;;;;;;7.93;7.13;;;12.70;99.90;;;;;;10203178;29;20278;-88
2023/05/23 00:13:35;;;;;;;11.10;6.90;;;12.20;99.90;;;;;;10175355;29;20239;-88
2023/05/23 00:18:41;;;;;;;7.95;6.90;;;12.20;99.90;;;;;;10184286;29;20302;-88
2023/05/23 00:23:44;;;;;;;10.15;6.07;;;12.30;99.90;;;;;;10151597;29;20270;-88
2023/05/23 00:28:47;;;;;;;11.48;7.60;;;12.30;99.90;;;;;;10179325;29;20242;-88
2023/05/23 00:33:49;;;;;;;8.27;6.65;;;12.40;99.90;;;;;;10189200;29;20238;-88
2023/05/23 00:38:53;;;;;;;8.82;6.05;;;12.40;99.90;;;;;;10189137;29;20246;-88
2023/05/23 00:43:58;;;;;;;10.25;7.95;;;12.10;99.90;;;;;;10206075;29;20262;-88
2023/05/23 00:49:01;;;;;;;8.82;7.40;;;12.00;99.90;;;;;;10189240;29;20308;-87
2023/05/23 00:54:04;;;;;;;7.40;6.70;;;11.90;99.90;;;;;;10211897;29;20364;-87
2023/05/23 00:59:08;;;;;;;7.97;7.10;;;11.90;99.90;;;;;;10214436;29;20685;-88
2023/05/23 01:04:12;;;;;;;7.20;6.47;;;11.70;99.90;;;;;;10195691;29;20805;-87
2023/05/23 01:09:16;;;;;;;12.32;7.63;;;11.80;99.90;;;;;;10207496;29;20243;-87
2023/05/23 01:14:29;;;;;;;7.68;6.80;;;12.00;99.90;;;;;;10158180;29;20239;-87
2023/05/23 01:20:00;;;;;;;8.20;6.95;;;11.90;99.90;;;;;;10205409;29;20239;-87
2023/05/23 01:25:17;;;;;;;8.13;7.32;;;11.90;99.90;;;;;;10180449;29;20258;-87
2023/05/23 01:30:22;;;;;;;5.95;5.43;;;11.80;99.90;;;;;;10188880;29;20239;-88
2023/05/23 01:35:26;;;;;;;7.60;6.78;;;11.90;99.90;;;;;;10188459;29;20680;-87
2023/05/23 01:40:29;;;;;;;7.63;6.82;;;11.80;99.90;;;;;;10191661;29;20242;-88
2023/05/23 01:45:32;;;;;;;7.65;6.95;;;11.60;99.90;;;;;;10171598;29;20263;-87
2023/05/23 01:50:35;;;;;;;7.38;6.68;;;11.90;99.90;;;;;;10158318;29;20291;-87
2023/05/23 01:55:40;;;;;;;12.27;7.07;;;11.90;99.90;;;;;;10184694;29;20267;-87
2023/05/23 02:00:43;;;;;;;9.25;7.90;;;11.90;99.90;;;;;;10185965;29;20318;-87
2023/05/23 02:05:46;;;;;;;9.32;7.47;;;11.60;99.90;;;;;;10190931;29;20724;-88
2023/05/23 02:10:48;;;;;;;8.25;6.60;;;11.70;99.90;;;;;;10170107;29;20242;-87
2023/05/23 02:15:51;;;;;;;8.80;6.90;;;11.60;99.90;;;;;;10154672;29;20307;-88
2023/05/23 02:20:57;;;;;;;8.93;6.15;;;11.70;99.90;;;;;;10191782;29;20617;-87
2023/05/23 02:26:00;;;;;;;6.85;6.22;;;11.60;99.90;;;;;;10187315;29;20255;-87
2023/05/23 02:31:02;;;;;;;8.57;7.10;;;11.70;99.90;;;;;;10171599;29;20227;-87
2023/05/23 02:36:05;;;;;;;8.63;6.22;;;11.70;99.90;;;;;;10193065;29;20238;-87
2023/05/23 02:41:08;;;;;;;8.52;6.43;;;11.60;99.90;;;;;;10192158;29;20286;-88
2023/05/23 02:46:12;;;;;;;7.40;6.35;;;12.10;99.90;;;;;;10191665;29;20295;-87
2023/05/23 02:51:15;;;;;;;9.90;7.47;;;11.90;99.90;;;;;;10190518;29;20279;-88
2023/05/23 02:56:17;;;;;;;7.68;6.88;;;11.90;99.90;;;;;;10166768;29;20262;-88
2023/05/23 03:01:20;;;;;;;8.98;6.78;;;11.70;99.90;;;;;;10189109;29;20243;-87
2023/05/23 03:06:23;;;;;;;9.68;6.60;;;11.80;99.90;;;;;;10151894;29;20263;-88
2023/05/23 03:11:25;;;;;;;8.68;6.72;;;11.80;99.90;;;;;;10179402;29;20297;-89
2023/05/23 03:16:28;;;;;;;12.68;7.82;;;11.50;99.90;;;;;;10181480;29;20243;-88
2023/05/23 03:21:31;;;;;;;6.40;5.80;;;11.70;99.90;;;;;;10188087;29;20238;-89
2023/05/23 03:26:35;;;;;;;8.50;6.15;;;11.80;99.90;;;;;;10190667;29;20254;-88
2023/05/23 03:31:37;;;;;;;9.02;8.13;;;12.00;99.90;;;;;;10175053;29;20259;-89
2023/05/23 03:36:40;;;;;;;5.32;4.82;;;11.80;99.90;;;;;;10190158;29;20242;-88
2023/05/23 03:41:43;;;;;;;8.65;6.95;;;11.90;99.90;;;;;;10190439;29;20295;-88
2023/05/23 03:46:45;;;;;;;8.68;6.85;;;11.90;99.90;;;;;;10151176;29;20270;-89
2023/05/23 03:51:49;;;;;;;10.10;7.53;;;11.80;99.90;;;;;;10150301;29;20235;-88
2023/05/23 03:56:52;;;;;;;10.05;7.10;;;11.80;99.90;;;;;;10179202;29;20255;-88
2023/05/23 04:01:57;;;;;;;11.77;7.65;;;12.20;99.90;;;;;;10183719;29;20219;-88
2023/05/23 04:07:01;;;;;;;9.32;6.03;;;12.30;99.90;;;;;;10187107;29;20290;-88
2023/05/23 04:12:04;;;;;;;12.45;7.97;;;12.50;99.90;;;;;;10167523;29;20267;-88
2023/05/23 04:17:07;;;;;;;11.57;8.52;;;12.70;99.90;;;;;;10182124;29;20655;-88
2023/05/23 04:22:10;;;;;;;11.52;8.23;;;12.60;99.90;;;;;;10187475;29;20253;-88
2023/05/23 04:27:13;;;;;;;11.60;8.98;;;13.00;99.90;;;;;;10191117;29;20884;-88
2023/05/23 04:32:18;;;;;;;10.95;8.65;;;13.20;99.90;;;;;;10189300;29;20247;-89
2023/05/23 04:37:24;;;;;;;8.13;6.78;;;13.60;99.90;;;;;;10188947;29;20297;-89
2023/05/23 04:42:29;;;;;;;8.00;6.55;;;13.80;99.90;;;;;;10196276;29;20316;-89
2023/05/23 04:47:55;;;;;;;6.28;5.65;;;14.10;99.90;;;;;;10198265;29;20294;-89
2023/05/23 04:53:10;;;;;;;14.57;8.15;;;14.50;99.90;;;;;;10207834;29;20274;-88
2023/05/23 04:58:14;;;;;;;8.98;8.07;;;14.70;99.90;;;;;;10196282;29;20250;-89
2023/05/23 05:03:17;;;;;;;8.57;5.93;;;14.80;99.90;;;;;;10207772;29;20728;-88
2023/05/23 05:08:22;;;;;;;9.48;8.57;;;15.20;99.90;;;;;;10203050;29;20279;-88
2023/05/23 05:13:25;;;;;;;8.43;6.22;;;15.60;99.90;;;;;;10203353;29;20700;-89
2023/05/23 05:18:30;;;;;;;9.70;8.10;;;15.70;99.90;;;;;;10206322;29;20251;-88
2023/05/23 05:23:34;;;;;;;9.95;6.40;;;15.80;99.90;;;;;;10199094;29;20266;-88
2023/05/23 05:28:37;;;;;;;10.27;6.40;;;16.20;99.90;;;;;;10186983;29;20226;-88
2023/05/23 05:33:40;;;;;;;15.57;9.15;;;16.50;99.90;;;;;;10208705;29;20242;-88
2023/05/23 05:38:46;;;;;;;5.00;4.50;;;;;;;;;;10208510;29;20301;-88
2023/05/23 05:43:51;;;;;;;7.15;5.28;;;17.00;99.90;;;;;;10185789;29;20250;-88
2023/05/23 05:48:54;;;;;;;8.38;7.57;;;17.30;99.90;;;;;;10204825;29;20243;-88
2023/05/23 05:53:57;;;;;;;20.40;8.43;;;17.50;99.90;;;;;;10197291;29;20732;-88
2023/05/23 05:59:00;;;;;;;3.85;3.55;;;17.50;99.90;;;;;;10206780;29;20776;-88
2023/05/23 06:04:03;;;;;;;12.20;7.60;;;17.60;99.90;;;;;;10193420;29;20278;-96
2023/05/23 06:09:07;;;;;;;7.20;6.50;;;18.30;99.90;;;;;;10191915;29;20247;-96
2023/05/23 06:14:10;;;;;;;10.63;7.07;;;18.40;99.90;;;;;;10192661;29;20266;-95
2023/05/23 06:19:17;;;;;;;8.93;5.97;;;18.70;95.50;;;;;;10212736;29;20692;-95
2023/05/23 06:24:20;;;;;;;10.55;6.88;;;;;;;;;;10211341;29;20337;-96
2023/05/23 06:29:23;;;;;;;13.40;6.70;;;21.20;98.40;;;;;;10210424;29;20215;-94
2023/05/23 06:34:26;;;;;;;9.95;6.45;;;19.40;90.40;;;;;;10208044;29;20242;-93
2023/05/23 06:39:28;;;;;;;14.25;7.20;;;19.50;92.90;;;;;;10200699;29;20298;-94
2023/05/23 06:44:31;;;;;;;12.52;7.22;;;19.40;91.40;;;;;;10208357;29;20266;-94
2023/05/23 06:49:36;;;;;;;10.23;6.75;;;19.40;90.60;;;;;;10206927;29;20243;-93
2023/05/23 06:54:39;;;;;;;9.25;6.10;;;19.40;90.40;;;;;;10207577;29;20292;-93
2023/05/23 06:59:42;;;;;;;10.57;7.32;;;19.50;88.40;;;;;;10207894;29;20294;-93
2023/05/23 07:04:45;;;;;;;10.68;6.50;;;19.60;90.00;;;;;;10185108;29;20266;-93
2023/05/23 07:09:54;;;;;;;11.20;6.57;;;20.00;92.10;;;;;;10194617;29;20797;-93
2023/05/23 07:14:57;;;;;;;7.28;6.47;;;20.40;90.90;;;;;;10195214;29;20309;-93
2023/05/23 07:20:01;;;;;;;9.40;6.43;;;20.60;90.30;;;;;;10191077;29;20388;-94
2023/05/23 07:25:06;;;;;;;7.40;6.53;;;20.60;87.70;;;;;;10206666;29;20329;-93
2023/05/23 07:30:09;;;;;;;6.88;6.05;;;21.00;88.20;;;;;;10207158;29;20679;-93
2023/05/23 07:35:13;;;;;;;7.18;6.18;;;;;;;;;;10206568;29;20690;-93
2023/05/23 07:40:16;;;;;;;7.28;5.60;;;21.30;76.40;;;;;;10190339;29;20854;-93
2023/05/23 07:45:19;;;;;;;11.57;5.85;;;21.70;77.70;;;;;;10205107;29;20639;-93
2023/05/23 07:50:22;;;;;;;6.72;6.00;;;21.60;75.80;;;;;;10205614;29;20267;-93
2023/05/23 07:55:29;;;;;;;7.07;6.20;;;21.70;79.00;;;;;;10205355;29;20262;-93
2023/05/23 08:00:33;;;;;;;6.90;5.22;;;21.70;75.70;;;;;;10194317;29;20634;-93
2023/05/23 08:05:44;;;;;;;7.53;5.57;;;21.80;74.30;;;;;;10205747;29;20270;-93
2023/05/23 08:10:49;;;;;;;11.65;6.85;;;;;;;;;;10189769;29;20254;-95
2023/05/23 08:15:58;;;;;;;5.47;4.97;;;22.20;75.70;;;;;;10205832;29;20279;-94
2023/05/23 08:21:04;;;;;;;6.90;5.55;;;22.50;70.30;;;;;;10206049;29;20667;-94
2023/05/23 08:26:07;;;;;;;7.57;5.47;;;22.70;74.00;;;;;;10185098;29;20259;-95
2023/05/23 08:31:10;;;;;;;5.15;4.65;;;22.70;65.70;;;;;;10205612;29;20235;-94
2023/05/23 08:36:13;;;;;;;5.53;4.80;;;22.80;69.10;;;;;;10205823;29;20334;-93
2023/05/23 08:41:24;;;;;;;10.07;5.68;;;22.80;69.00;;;;;;10204808;29;20246;-93
2023/05/23 08:46:39;;;;;;;12.65;6.18;;;22.80;66.20;;;;;;10204872;29;20266;-93
2023/05/23 08:51:43;;;;;;;4.78;4.30;;;22.90;57.50;;;;;;10205070;29;20636;-94
2023/05/23 08:56:52;;;;;;;7.97;4.65;;;23.00;65.40;;;;;;10205551;29;20239;-94
2023/05/23 09:01:55;;;;;;;6.75;5.72;;;23.10;57.40;;;;;;10205620;29;20289;-95
2023/05/23 09:07:00;;;;;;;7.13;5.32;;;23.20;58.90;;;;;;10202871;29;20266;-94
2023/05/23 09:12:04;;;;;;;9.57;4.80;;;23.20;53.30;;;;;;10208579;29;20211;-94
2023/05/23 09:17:08;;;;;;;6.97;4.97;;;23.10;55.20;;;;;;10212782;29;20214;-94
2023/05/23 09:22:12;;;;;;;7.40;4.60;;;23.10;49.40;;;;;;10212484;29;20210;-93
2023/05/23 09:27:27;;;;;;;8.10;4.47;;;23.10;55.70;;;;;;10197867;29;20266;-94
2023/05/23 09:32:30;;;;;;;7.70;4.30;;;23.10;54.40;;;;;;10212587;29;20275;-94
2023/05/23 09:37:38;;;;;;;5.70;4.65;;;23.30;40.00;;;;;;10213321;29;20250;-92
2023/05/23 09:42:45;;;;;;;3.90;3.55;;;23.40;58.40;;;;;;10200430;29;20701;-96
2023/05/23 09:47:51;;;;;;;5.88;5.03;;;23.70;54.00;;;;;;10215452;29;20270;-96
2023/05/23 09:52:54;;;;;;;4.45;4.07;;;23.70;56.70;;;;;;10208784;29;20223;-94
2023/05/23 09:57:58;;;;;;;4.70;3.90;;;23.80;48.90;;;;;;10212706;29;20305;-95
2023/05/23 10:03:12;;;;;;;6.65;4.00;;;23.80;44.50;;;;;;10213549;29;20239;-93
2023/05/23 10:08:26;;;;;;;5.53;4.38;;;23.60;46.10;;;;;;10192675;29;20266;-93
2023/05/23 10:13:31;;;;;;;6.50;3.90;;;23.50;42.20;;;;;;10209780;29;20936;-94
2023/05/23 10:18:58;;;;;;;6.28;4.32;;;23.40;47.10;;;;;;10210826;29;20235;-94
2023/05/23 10:24:03;;;;;;;6.00;4.93;;;23.30;49.50;;;;;;10202261;29;20691;-94
2023/05/23 10:29:06;;;;;;;4.65;4.25;;;23.40;47.40;;;;;;10214257;29;20588;-93
2023/05/23 10:34:28;;;;;;;4.97;4.47;;;23.60;52.60;;;;;;10210848;29;20206;-94
2023/05/23 10:40:08;;;;;;;5.05;4.57;;;23.70;50.40;;;;;;10210540;29;20273;-95
2023/05/23 10:45:21;;;;;;;5.18;4.68;;;23.80;51.00;;;;;;10209165;29;21076;-94
2023/05/23 10:50:36;;;;;;;5.85;5.20;;;24.00;48.70;;;;;;10201241;29;20669;-92
2023/05/23 10:55:39;;;;;;;5.88;4.68;;;24.10;42.50;;;;;;10201001;29;20239;-94
2023/05/23 11:01:05;;;;;;;6.30;4.30;;;24.00;42.50;;;;;;10200392;29;20319;-94
2023/05/23 11:06:32;;;;;;;20.83;6.43;;;24.10;41.10;;;;;;10208904;29;20692;-93
2023/05/23 11:11:52;;;;;;;7.30;4.60;;;24.30;36.50;;;;;;10196169;29;20340;-93
2023/05/23 11:16:55;;;;;;;5.05;3.70;;;24.30;38.50;;;;;;10200624;29;20246;-92
2023/05/23 11:22:00;;;;;;;8.85;3.95;;;24.40;39.00;;;;;;10208012;29;20702;-91
2023/05/23 11:27:03;;;;;;;4.68;4.18;;;24.40;42.20;;;;;;10208017;29;20266;-91
2023/05/23 11:32:13;;;;;;;5.28;4.50;;;24.20;43.90;;;;;;10207434;29;20242;-91
2023/05/23 11:37:20;;;;;;;4.78;3.95;;;24.20;43.40;;;;;;10211879;29;20219;-94
2023/05/23 11:42:23;;;;;;;4.57;4.18;;;24.10;43.10;;;;;;10206966;29;20247;-93
2023/05/23 11:47:26;;;;;;;7.38;4.43;;;24.10;43.50;;;;;;10197155;29;20270;-92
2023/05/23 11:52:31;;;;;;;5.35;4.47;;;24.20;33.90;;;;;;10205451;29;20262;-92
2023/05/23 11:57:38;;;;;;;5.95;4.30;;;24.10;39.50;;;;;;10196346;29;20230;-91
2023/05/23 12:02:41;;;;;;;5.93;4.95;;;23.70;34.60;;;;;;10207353;29;20239;-93
2023/05/23 12:07:46;;;;;;;8.60;5.05;;;23.60;39.50;;;;;;10206701;29;20707;-93
2023/05/23 12:12:50;;;;;;;6.18;5.57;;;23.50;38.50;;;;;;10205387;29;20282;-94
2023/05/23 12:17:54;;;;;;;7.22;4.30;;;23.40;38.80;;;;;;10205206;29;20297;-94
2023/05/23 12:22:57;;;;;;;5.00;4.50;;;23.00;49.20;;;;;;10194388;29;20285;-94
2023/05/23 12:28:00;;;;;;;6.78;4.05;;;22.60;57.50;;;;;;10205052;29;20633;-94
2023/05/23 12:33:07;;;;;;;4.90;4.43;;;22.40;63.50;;;;;;10204810;29;20685;-94
2023/05/23 12:38:15;;;;;;;8.52;4.97;;;22.10;65.90;;;;;;10205856;29;20246;-95
2023/05/23 12:43:17;;;;;;;4.13;3.75;;;21.90;67.60;;;;;;10206721;29;20278;-93
2023/05/23 12:48:20;;;;;;;9.68;4.88;;;21.70;73.10;;;;;;10203529;29;20282;-94
2023/05/23 12:53:23;;;;;;;4.65;4.20;;;21.60;72.90;;;;;;10214789;29;20258;-94
2023/05/23 12:58:27;;;;;;;11.30;5.13;;;21.30;78.00;;;;;;10201560;29;20242;-93
2023/05/23 13:03:32;;;;;;;4.68;4.20;;;21.20;81.10;;;;;;10209629;29;20234;-93
2023/05/23 13:08:35;;;;;;;6.40;4.90;;;21.10;84.00;;;;;;10178027;29;20278;-93
2023/05/23 13:13:37;;;;;;;4.90;4.43;;;21.00;86.30;;;;;;10196010;29;20254;-93
2023/05/23 13:18:40;;;;;;;7.15;5.65;;;20.80;89.20;;;;;;10215586;29;20207;-93
2023/05/23 13:23:43;;;;;;;8.88;5.65;;;20.60;90.80;;;;;;10174752;29;20275;-92
2023/05/23 13:28:46;;;;;;;6.30;4.50;;;20.50;91.90;;;;;;10191243;29;20333;-93
2023/05/23 13:33:48;;;;;;;9.27;7.43;;;20.30;92.60;;;;;;10183329;29;20693;-86
2023/05/23 13:38:51;;;;;;;11.40;7.88;;;20.30;93.80;;;;;;10212451;29;20651;-93
2023/05/23 13:43:54;;;;;;;11.05;8.10;;;20.00;95.00;;;;;;10195451;29;20317;-93
2023/05/23 13:48:56;;;;;;;13.63;6.57;;;19.70;96.50;;;;;;10195797;29;20270;-92
2023/05/23 13:53:59;;;;;;;17.02;9.35;;;19.40;97.80;;;;;;10210685;29;20916;-92
2023/05/23 13:59:02;;;;;;;13.63;7.97;;;19.40;98.80;;;;;;10210777;29;20298;-92
2023/05/23 14:04:04;;;;;;;11.73;8.77;;;19.40;99.30;;;;;;10213966;29;20277;-91
2023/05/23 14:09:08;;;;;;;11.73;7.93;;;19.20;99.90;;;;;;10194424;29;20266;-93
2023/05/23 14:14:11;;;;;;;13.40;8.60;;;19.10;99.90;;;;;;10195132;29;20313;-92
2023/05/23 14:19:13;;;;;;;10.00;6.70;;;18.90;99.90;;;;;;10210784;29;20247;-92
2023/05/23 14:24:16;;;;;;;15.57;9.05;;;19.00;99.90;;;;;;10194869;29;20250;-92
2023/05/23 14:29:19;;;;;;;12.98;8.05;;;19.20;99.90;;;;;;10178494;29;20266;-92
2023/05/23 14:34:21;;;;;;;11.00;8.73;;;19.20;99.90;;;;;;10193913;29;20301;-92
2023/05/23 14:39:24;;;;;;;11.02;7.63;;;19.30;99.90;;;;;;10194552;29;20250;-92
2023/05/23 14:44:27;;;;;;;12.43;10.15;;;19.50;99.90;;;;;;10194031;29;20255;-93
2023/05/23 14:49:29;;;;;;;13.45;10.27;;;19.70;99.90;;;;;;10189023;29;20648;-84
2023/05/23 14:54:33;;;;;;;11.15;8.02;;;20.10;99.90;;;;;;10187554;29;20255;-84
2023/05/23 14:59:35;;;;;;;12.35;8.55;;;20.30;99.90;;;;;;10199642;29;20697;-84
2023/05/23 15:04:38;;;;;;;10.77;9.02;;;20.40;99.90;;;;;;10191590;29;20274;-83
2023/05/23 15:09:41;;;;;;;11.27;8.73;;;20.30;99.90;;;;;;10214950;29;20235;-84
2023/05/23 15:14:43;;;;;;;9.52;8.40;;;20.50;99.90;;;;;;10196179;29;20732;-85
2023/05/23 15:19:46;;;;;;;9.60;8.32;;;20.20;99.90;;;;;;10214448;29;20290;-84
2023/05/23 15:24:49;;;;;;;9.82;8.60;;;20.00;99.90;;;;;;10203057;29;20219;-85
2023/05/23 15:29:51;;;;;;;11.85;9.35;;;20.20;99.90;;;;;;10197261;29;20238;-85
2023/05/23 15:34:54;;;;;;;10.40;8.32;;;20.50;99.90;;;;;;10227950;29;20203;-85
2023/05/23 15:39:57;;;;;;;10.15;8.63;;;20.20;99.90;;;;;;10227679;29;20626;-85
2023/05/23 15:44:59;;;;;;;10.82;9.43;;;19.80;99.90;;;;;;10217784;29;20212;-83
2023/05/23 15:50:02;;;;;;;14.35;9.80;;;19.70;99.90;;;;;;10205542;29;20235;-84
2023/05/23 15:55:05;;;;;;;11.55;9.98;;;19.50;99.90;;;;;;10210633;29;20215;-85
2023/05/23 16:00:08;;;;;;;13.10;10.48;;;19.40;99.90;;;;;;10208380;29;20210;-84
2023/05/23 16:05:14;;;;;;;17.67;12.32;;;19.40;99.90;;;;;;10214785;29;20938;-85
2023/05/23 16:10:16;;;;;;;18.80;12.80;;;19.30;99.90;;;;;;10209337;29;20274;-84
2023/05/23 16:15:19;;;;;;;14.48;12.52;;;19.20;99.90;;;;;;10152968;29;20211;-86
2023/05/23 16:20:22;;;;;;;18.02;12.85;;;19.00;99.90;;;;;;10198874;29;20235;-87
2023/05/23 16:25:24;;;;;;;16.25;12.57;;;18.70;99.90;;;;;;10206181;29;20243;-86
2023/05/23 16:30:27;;;;;;;14.27;12.10;;;18.30;99.90;;;;;;10192421;29;20207;-87
2023/05/23 16:35:29;;;;;;;17.67;12.27;;;18.20;99.90;;;;;;10170465;29;20663;-87
2023/05/23 16:40:32;;;;;;;14.07;11.93;;;18.00;99.90;;;;;;10198632;29;20246;-85
2023/05/23 16:45:34;;;;;;;18.05;12.52;;;17.90;99.90;;;;;;10152597;29;20247;-85
2023/05/23 16:50:37;;;;;;;16.48;11.50;;;17.70;99.90;;;;;;10192129;29;20272;-85
2023/05/23 16:55:40;;;;;;;15.75;12.32;;;17.80;99.90;;;;;;10180415;29;20266;-84
2023/05/23 17:00:43;;;;;;;15.13;12.35;;;17.90;99.90;;;;;;10196380;29;20268;-84
2023/05/23 17:05:46;;;;;;;12.80;11.10;;;18.00;99.90;;;;;;10196192;29;20925;-85
2023/05/23 17:10:48;;;;;;;18.42;11.63;;;18.00;99.90;;;;;;10205469;29;20243;-85
2023/05/23 17:15:51;;;;;;;12.20;10.15;;;18.00;99.90;;;;;;10206557;29;20231;-85
2023/05/23 17:20:53;;;;;;;20.83;11.75;;;18.00;99.90;;;;;;10187633;29;20688;-85
2023/05/23 17:25:56;;;;;;;16.38;11.85;;;17.90;99.90;;;;;;10175259;29;20654;-85
2023/05/23 17:30:58;;;;;;;11.98;10.13;;;17.80;99.90;;;;;;10174795;29;20242;-85
2023/05/23 17:36:02;;;;;;;12.65;10.48;;;17.70;99.90;;;;;;10207547;29;20298;-85
2023/05/23 17:41:04;;;;;;;9.93;8.85;;;17.80;99.90;;;;;;10207884;29;20242;-85
2023/05/23 17:46:07;;;;;;;13.48;9.57;;;17.80;99.90;;;;;;10199520;29;20258;-85
2023/05/23 17:51:10;;;;;;;18.58;9.80;;;17.80;99.90;;;;;;10182369;29;20346;-85
2023/05/23 17:56:12;;;;;;;15.55;13.43;;;17.70;99.90;;;;;;10180275;29;20262;-85
2023/05/23 18:01:15;;;;;;;14.00;10.43;;;17.60;99.90;;;;;;10183829;29;20313;-84
2023/05/23 18:06:18;;;;;;;15.20;12.13;;;17.70;99.90;;;;;;10198397;29;20259;-85
2023/05/23 18:11:21;;;;;;;12.52;10.50;;;17.70;99.90;;;;;;10210635;29;20289;-84
2023/05/23 18:16:24;;;;;;;14.15;10.25;;;17.60;99.90;;;;;;10157327;29;20249;-84
2023/05/23 18:21:27;;;;;;;11.85;10.57;;;17.60;99.90;;;;;;10200587;29;20247;-84
2023/05/23 18:26:30;;;;;;;11.07;9.80;;;17.50;99.90;;;;;;10200215;29;20274;-84
2023/05/23 18:31:33;;;;;;;14.30;10.57;;;17.50;99.90;;;;;;10182735;29;20756;-84
2023/05/23 18:36:35;;;;;;;14.55;11.43;;;17.40;99.90;;;;;;10199295;29;20736;-84
2023/05/23 18:41:38;;;;;;;15.93;12.18;;;17.10;99.90;;;;;;10199854;29;20231;-84
2023/05/23 18:46:41;;;;;;;13.27;10.80;;;16.80;99.90;;;;;;10159720;29;20270;-84
2023/05/23 18:51:44;;;;;;;13.85;12.45;;;16.50;99.90;;;;;;10176305;29;20246;-86
2023/05/23 18:56:46;;;;;;;16.88;13.73;;;16.30;99.90;;;;;;10194266;29;20286;-84
2023/05/23 19:01:49;;;;;;;16.20;13.40;;;16.10;99.90;;;;;;10212082;29;20306;-84
2023/05/23 19:06:52;;;;;;;18.05;13.52;;;16.10;99.90;;;;;;10210455;29;20728;-85
2023/05/23 19:11:55;;;;;;;17.95;16.05;;;16.00;99.90;;;;;;10192809;29;20234;-86
2023/05/23 19:16:58;;;;;;;17.80;14.20;;;15.90;99.90;;;;;;10205493;29;20254;-86
2023/05/23 19:22:01;;;;;;;18.08;15.43;;;15.80;99.90;;;;;;10195989;29;20234;-87
2023/05/23 19:27:04;;;;;;;17.40;14.40;;;15.70;99.90;;;;;;10209054;29;20254;-86
2023/05/23 19:32:06;;;;;;;17.15;15.35;;;15.60;99.90;;;;;;10191751;29;20673;-87
2023/05/23 19:37:09;;;;;;;20.58;16.45;;;15.40;99.90;;;;;;10208822;29;20621;-86
2023/05/23 19:42:12;;;;;;;19.02;16.58;;;15.40;99.90;;;;;;10206722;29;20651;-86
2023/05/23 19:47:15;;;;;;;20.05;16.77;;;15.30;99.90;;;;;;10189180;29;20262;-88
2023/05/23 19:52:17;;;;;;;25.30;17.13;;;15.30;99.90;;;;;;10174848;29;20262;-88
2023/05/23 19:57:20;;;;;;;20.48;17.35;;;15.20;99.90;;;;;;10190350;29;20219;-88
2023/05/23 20:02:23;;;;;;;30.67;24.30;;;15.20;99.90;;;;;;10202176;29;20274;-88
2023/05/23 20:07:25;;;;;;;28.97;24.37;;;15.30;99.90;;;;;;10192929;29;20255;-88
2023/05/23 20:12:29;;;;;;;34.20;26.63;;;15.30;99.90;;;;;;10184671;29;20305;-85
2023/05/23 20:17:33;;;;;;;14.83;12.53;;;15.30;99.90;;;;;;10192764;29;20242;-85
2023/05/23 20:22:36;;;;;;;15.25;11.70;;;15.60;99.90;;;;;;10190604;29;20678;-85
2023/05/23 20:33:17;;;;;;;12.43;11.13;;;16.50;99.90;;;;;;10810325;23;10001650;-85
2023/05/23 20:38:19;;;;;;;8.93;8.07;;;16.90;99.90;;;;;;10170878;29;20243;-85
2023/05/23 20:43:22;;;;;;;12.05;10.73;;;17.10;99.90;;;;;;10166729;29;20299;-85
2023/05/23 20:48:27;;;;;;;16.27;13.68;;;17.20;99.90;;;;;;10208127;29;20262;-86
2023/05/23 20:53:33;;;;;;;13.65;11.43;;;17.30;99.90;;;;;;10205010;29;20211;-85
2023/05/23 20:58:36;;;;;;;21.85;15.02;;;17.20;99.90;;;;;;10203561;29;20254;-85
2023/05/23 21:03:39;;;;;;;12.90;11.50;;;17.10;99.90;;;;;;10171299;29;20282;-83
2023/05/23 21:08:42;;;;;;;14.70;13.20;;;17.30;99.90;;;;;;10197024;29;20279;-83
2023/05/23 21:14:05;;;;;;;15.30;13.68;;;17.50;99.90;;;;;;10165319;29;20685;-85
2023/05/23 21:19:31;;;;;;;17.10;13.98;;;17.50;99.90;;;;;;10186160;29;20842;-85
2023/05/23 21:24:34;;;;;;;14.82;12.85;;;17.40;99.90;;;;;;10206947;29;20279;-83
2023/05/23 21:29:36;;;;;;;12.90;11.52;;;17.40;99.90;;;;;;10177229;29;20267;-84
2023/05/23 21:34:39;;;;;;;18.48;16.25;;;17.60;99.90;;;;;;10176390;29;20310;-84
2023/05/23 21:39:41;;;;;;;15.10;11.77;;;17.50;99.90;;;;;;10211671;29;20302;-83
2023/05/23 21:44:53;;;;;;;12.98;11.38;;;17.50;99.90;;;;;;10211933;29;20247;-84
2023/05/23 21:49:56;;;;;;;12.45;11.15;;;17.50;99.90;;;;;;10211117;29;20278;-83
2023/05/23 21:54:58;;;;;;;13.95;12.52;;;17.50;99.90;;;;;;10212028;29;20302;-84
2023/05/23 22:00:01;;;;;;;13.38;11.13;;;17.50;99.90;;;;;;10211411;29;20294;-83
2023/05/23 22:05:14;;;;;;;14.35;12.85;;;17.40;99.90;;;;;;10211303;29;20696;-83
2023/05/23 22:10:16;;;;;;;12.15;10.77;;;17.30;99.90;;;;;;10211000;29;20274;-83
2023/05/23 22:15:19;;;;;;;13.13;11.82;;;17.00;99.90;;;;;;10210651;29;20266;-83
2023/05/23 22:20:22;;;;;;;12.75;11.20;;;16.90;99.90;;;;;;10191644;29;20254;-83
2023/05/23 22:25:24;;;;;;;10.85;9.75;;;16.80;99.90;;;;;;10210991;29;20246;-83
2023/05/23 22:30:27;;;;;;;12.82;11.40;;;16.90;99.90;;;;;;10210112;29;20314;-83
2023/05/23 22:35:30;;;;;;;15.73;14.05;;;16.70;99.90;;;;;;10210412;29;20258;-83
2023/05/23 22:40:33;;;;;;;14.93;13.43;;;16.50;99.90;;;;;;10193527;29;20873;-83
2023/05/23 22:45:41;;;;;;;14.75;11.55;;;16.10;99.90;;;;;;10192084;29;20831;-83
2023/05/23 22:50:44;;;;;;;14.07;12.20;;;16.20;99.90;;;;;;10208913;29;20278;-83
2023/05/23 22:55:50;;;;;;;13.85;12.40;;;16.30;99.90;;;;;;10210120;29;20700;-83
2023/05/23 23:00:52;;;;;;;13.77;12.23;;;16.30;99.90;;;;;;10209517;29;20763;-83
2023/05/23 23:05:56;;;;;;;12.70;11.45;;;16.50;99.90;;;;;;10208981;29;20715;-83
2023/05/23 23:10:58;;;;;;;15.30;11.80;;;16.80;99.90;;;;;;10193403;29;20323;-83
2023/05/23 23:16:02;;;;;;;13.98;11.65;;;16.90;99.90;;;;;;10208870;29;20751;-83
2023/05/23 23:21:05;;;;;;;14.40;12.90;;;17.00;99.90;;;;;;10208638;29;20250;-83
2023/05/23 23:26:07;;;;;;;11.05;9.95;;;16.80;99.90;;;;;;10208095;29;20246;-83
2023/05/23 23:31:10;;;;;;;11.05;9.95;;;16.90;99.90;;;;;;10208233;29;20270;-83
2023/05/23 23:36:13;;;;;;;10.45;8.82;;;17.10;99.90;;;;;;10207961;29;20270;-83
2023/05/23 23:41:15;;;;;;;10.27;9.27;;;17.20;99.90;;;;;;10207492;29;20688;-83
2023/05/23 23:46:19;;;;;;;11.93;9.05;;;17.20;99.90;;;;;;10207866;29;20290;-83
2023/05/23 23:51:22;;;;;;;10.20;8.95;;;17.50;99.90;;;;;;10207388;29;20259;-83
2023/05/23 23:56:25;;;;;;;11.98;10.00;;;17.40;99.90;;;;;;10208078;29;20242;-83
